createdAt,value
2022-09-24T00:01:47.771Z,6.77
2022-09-24T00:04:15.507Z,7.17
2022-09-24T00:06:45.602Z,6.77
2022-09-24T00:09:15.135Z,7.27
2022-09-24T00:11:45.320Z,7.27
2022-09-24T00:14:13.930Z,7.00
2022-09-24T00:16:44.261Z,6.60
2022-09-24T00:19:13.781Z,7.53
2022-09-24T00:21:42.852Z,6.77
2022-09-24T00:24:33.738Z,7.17
2022-09-24T00:27:02.810Z,7.50
2022-09-24T00:29:31.295Z,6.70
2022-09-24T00:32:00.371Z,6.32
2022-09-24T00:34:28.352Z,6.83
2022-09-24T00:36:56.095Z,7.20
2022-09-24T00:39:23.816Z,6.90
2022-09-24T00:41:51.543Z,7.40
2022-09-24T00:44:59.111Z,6.47
2022-09-24T00:47:35.827Z,6.55
2022-09-24T00:50:23.293Z,6.87
2022-09-24T00:52:55.748Z,7.13
2022-09-24T00:55:24.911Z,6.93
2022-09-24T00:57:56.343Z,6.87
2022-09-24T01:00:24.599Z,7.10
2022-09-24T01:02:59.388Z,7.22
2022-09-24T01:05:27.107Z,6.70
2022-09-24T01:07:55.001Z,6.57
2022-09-24T01:10:47.931Z,7.30
2022-09-24T01:13:30.055Z,7.10
2022-09-24T01:16:04.175Z,7.35
2022-09-24T01:18:42.174Z,6.45
2022-09-24T01:21:32.996Z,7.10
2022-09-24T01:24:15.254Z,6.83
2022-09-24T01:26:56.497Z,6.33
2022-09-24T01:29:42.055Z,6.77
2022-09-24T01:32:18.377Z,6.60
2022-09-24T01:34:50.609Z,6.33
2022-09-24T01:37:23.207Z,6.50
2022-09-24T01:39:54.743Z,6.90
2022-09-24T01:42:25.003Z,6.20
2022-09-24T01:44:55.839Z,6.03
2022-09-24T01:47:34.390Z,6.20
2022-09-24T01:50:03.005Z,6.70
2022-09-24T01:52:35.331Z,6.57
2022-09-24T01:55:06.878Z,6.17
2022-09-24T01:57:40.018Z,6.03
2022-09-24T02:00:13.233Z,6.20
2022-09-24T02:02:45.406Z,6.43
2022-09-24T02:05:18.151Z,6.17
2022-09-24T02:07:51.931Z,6.43
2022-09-24T02:10:21.639Z,5.93
2022-09-24T02:12:54.260Z,6.47
2022-09-24T02:15:32.425Z,6.00
2022-09-24T02:18:04.737Z,6.27
2022-09-24T02:20:35.685Z,6.27
2022-09-24T02:23:06.035Z,5.63
2022-09-24T02:25:39.023Z,6.13
2022-09-24T02:28:07.148Z,5.67
2022-09-24T02:30:42.279Z,5.90
2022-09-24T02:33:27.405Z,5.67
2022-09-24T02:35:55.352Z,6.13
2022-09-24T02:38:24.080Z,5.93
2022-09-24T02:40:53.076Z,5.53
2022-09-24T02:43:20.910Z,6.30
2022-09-24T02:45:49.995Z,6.30
2022-09-24T02:48:17.963Z,6.20
2022-09-24T02:53:26.712Z,6.37
2022-09-24T02:55:54.392Z,5.73
2022-09-24T02:58:22.094Z,5.47
2022-09-24T03:00:49.788Z,5.15
2022-09-24T03:03:17.517Z,6.00
2022-09-24T03:05:45.915Z,5.90
2022-09-24T03:08:13.844Z,5.60
2022-09-24T03:10:42.868Z,5.73
2022-09-24T03:13:11.246Z,5.70
2022-09-24T03:15:38.978Z,5.57
2022-09-24T03:18:06.953Z,5.83
2022-09-24T03:20:34.672Z,5.73
2022-09-24T03:23:02.349Z,5.57
2022-09-24T03:25:30.033Z,5.80
2022-09-24T03:27:59.095Z,5.77
2022-09-24T03:30:44.321Z,5.17
2022-09-24T03:33:12.029Z,6.10
2022-09-24T03:35:39.742Z,5.63
2022-09-24T03:38:07.444Z,6.00
2022-09-24T03:40:35.202Z,5.80
2022-09-24T03:43:04.292Z,5.83
2022-09-24T03:45:32.029Z,5.57
2022-09-24T03:47:59.723Z,5.60
2022-09-24T03:50:27.428Z,5.63
2022-09-24T03:52:55.081Z,5.50
2022-09-24T03:55:22.759Z,6.07
2022-09-24T03:57:50.458Z,5.57
2022-09-24T04:00:19.611Z,5.67
2022-09-24T04:02:47.539Z,5.87
2022-09-24T04:05:15.393Z,5.57
2022-09-24T04:07:44.016Z,5.97
2022-09-24T04:10:12.600Z,6.20
2022-09-24T04:12:40.326Z,5.90
2022-09-24T04:15:08.904Z,6.10
2022-09-24T04:17:37.911Z,5.80
2022-09-24T04:20:06.231Z,6.83
2022-09-24T04:22:33.907Z,6.67
2022-09-24T04:25:03.847Z,6.97
2022-09-24T04:27:31.547Z,7.23
2022-09-24T04:29:59.217Z,6.73
2022-09-24T04:32:27.264Z,6.27
2022-09-24T04:34:56.307Z,7.70
2022-09-24T04:37:24.010Z,7.90
2022-09-24T04:39:51.704Z,7.57
2022-09-24T04:42:20.068Z,7.40
2022-09-24T04:44:48.844Z,7.17
2022-09-24T04:47:18.799Z,7.07
2022-09-24T04:49:46.655Z,7.23
2022-09-24T04:52:16.368Z,7.07
2022-09-24T04:54:46.981Z,7.23
2022-09-24T04:57:15.616Z,7.23
2022-09-24T04:59:44.284Z,6.30
2022-09-24T05:02:12.370Z,6.13
2022-09-24T05:04:40.522Z,6.47
2022-09-24T05:07:08.619Z,6.70
2022-09-24T05:09:38.033Z,6.57
2022-09-24T05:12:06.684Z,6.80
2022-09-24T05:14:35.731Z,6.40
2022-09-24T05:17:04.589Z,6.90
2022-09-24T05:19:32.277Z,6.37
2022-09-24T05:21:59.972Z,5.75
2022-09-24T05:24:27.667Z,6.43
2022-09-24T05:27:11.953Z,6.13
2022-09-24T05:29:40.476Z,6.07
2022-09-24T05:32:09.908Z,6.70
2022-09-24T05:34:37.641Z,6.60
2022-09-24T05:37:05.525Z,6.80
2022-09-24T05:39:34.382Z,6.73
2022-09-24T05:42:07.761Z,6.23
2022-09-24T05:44:37.252Z,6.80
2022-09-24T05:47:04.969Z,6.63
2022-09-24T05:49:32.995Z,6.53
2022-09-24T05:52:01.229Z,6.83
2022-09-24T05:54:29.010Z,6.83
2022-09-24T05:56:56.902Z,6.40
2022-09-24T05:59:25.967Z,6.45
2022-09-24T06:01:54.324Z,6.57
2022-09-24T06:04:22.103Z,6.47
2022-09-24T06:06:50.298Z,6.80
2022-09-24T06:09:19.891Z,6.37
2022-09-24T06:11:50.499Z,6.50
2022-09-24T06:14:18.741Z,6.20
2022-09-24T06:16:47.779Z,6.83
2022-09-24T06:19:15.484Z,6.67
2022-09-24T06:21:43.179Z,6.60
2022-09-24T06:24:11.235Z,6.37
2022-09-24T06:26:38.969Z,6.70
2022-09-24T06:29:07.007Z,6.67
2022-09-24T06:31:34.939Z,6.50
2022-09-24T06:34:04.140Z,7.03
2022-09-24T06:36:31.813Z,6.63
2022-09-24T06:38:59.636Z,7.30
2022-09-24T06:41:27.512Z,6.60
2022-09-24T06:43:55.543Z,6.80
2022-09-24T06:46:25.696Z,6.93
2022-09-24T06:48:54.829Z,6.75
2022-09-24T06:51:23.891Z,6.85
2022-09-24T06:53:52.543Z,7.20
2022-09-24T06:56:20.382Z,7.20
2022-09-24T06:58:48.103Z,6.90
2022-09-24T07:01:15.860Z,6.60
2022-09-24T07:03:43.599Z,6.77
2022-09-24T07:06:11.351Z,6.75
2022-09-24T07:08:40.488Z,6.63
2022-09-24T07:11:08.884Z,7.23
2022-09-24T07:13:36.582Z,7.67
2022-09-24T07:16:04.336Z,7.45
2022-09-24T07:18:32.066Z,7.07
2022-09-24T07:20:59.697Z,7.53
2022-09-24T07:23:27.888Z,7.45
2022-09-24T07:25:58.174Z,7.47
2022-09-24T07:28:26.261Z,6.93
2022-09-24T07:30:59.311Z,7.88
2022-09-24T07:33:27.112Z,7.38
2022-09-24T07:35:57.597Z,8.73
2022-09-24T07:38:25.323Z,7.73
2022-09-24T07:40:54.203Z,7.73
2022-09-24T07:43:23.589Z,7.60
2022-09-24T07:45:51.290Z,7.27
2022-09-24T07:48:19.100Z,8.23
2022-09-24T07:50:46.812Z,7.63
2022-09-24T07:53:16.786Z,7.07
2022-09-24T07:55:45.493Z,8.13
2022-09-24T07:58:15.087Z,7.27
2022-09-24T08:00:44.378Z,7.60
2022-09-24T08:03:12.196Z,7.60
2022-09-24T08:05:44.196Z,7.87
2022-09-24T08:08:11.986Z,7.77
2022-09-24T08:10:40.255Z,8.30
2022-09-24T08:13:08.805Z,8.10
2022-09-24T08:15:36.601Z,8.07
2022-09-24T08:18:07.005Z,7.97
2022-09-24T08:20:34.952Z,8.20
2022-09-24T08:23:03.255Z,7.60
2022-09-24T08:25:31.783Z,7.68
2022-09-24T08:28:02.593Z,7.57
2022-09-24T08:30:30.970Z,7.13
2022-09-24T08:32:58.895Z,7.77
2022-09-24T08:35:28.031Z,7.60
2022-09-24T08:37:55.834Z,7.70
2022-09-24T08:40:26.969Z,7.97
2022-09-24T08:42:58.916Z,7.77
2022-09-24T08:45:44.405Z,7.43
2022-09-24T08:48:16.704Z,6.57
2022-09-24T08:50:52.179Z,7.15
2022-09-24T08:53:26.333Z,7.10
2022-09-24T08:55:57.048Z,7.83
2022-09-24T08:58:39.249Z,8.97
2022-09-24T09:01:22.296Z,9.17
2022-09-24T09:03:54.940Z,9.73
2022-09-24T09:06:45.871Z,9.57
2022-09-24T09:09:17.468Z,9.60
2022-09-24T09:11:49.419Z,9.55
2022-09-24T09:14:20.526Z,9.60
2022-09-24T09:16:52.085Z,9.77
2022-09-24T09:19:24.461Z,10.57
2022-09-24T09:21:58.311Z,11.07
2022-09-24T09:24:34.213Z,11.07
2022-09-24T09:27:02.518Z,12.07
2022-09-24T09:29:30.744Z,11.27
2022-09-24T09:32:09.924Z,11.45
2022-09-24T09:34:50.480Z,12.82
2022-09-24T09:37:27.940Z,12.25
2022-09-24T09:40:04.936Z,11.95
2022-09-24T09:42:36.180Z,13.40
2022-09-24T09:45:16.188Z,13.38
2022-09-24T09:47:48.982Z,14.03
2022-09-24T09:50:24.725Z,13.18
2022-09-24T09:52:53.949Z,13.20
2022-09-24T09:55:27.431Z,12.20
2022-09-24T09:58:10.981Z,13.00
2022-09-24T10:00:38.863Z,12.88
2022-09-24T10:03:06.681Z,12.70
2022-09-24T10:05:35.572Z,12.15
2022-09-24T10:08:04.651Z,11.77
2022-09-24T10:10:32.398Z,13.02
2022-09-24T10:13:10.324Z,14.63
2022-09-24T10:15:50.034Z,12.90
2022-09-24T10:18:18.916Z,13.13
2022-09-24T10:20:49.573Z,13.50
2022-09-24T10:23:23.340Z,12.25
2022-09-24T10:25:53.286Z,12.90
2022-09-24T10:28:39.520Z,11.55
2022-09-24T10:31:13.497Z,12.50
2022-09-24T10:33:43.884Z,13.93
2022-09-24T10:36:17.216Z,12.18
2022-09-24T10:38:46.327Z,12.88
2022-09-24T10:41:25.977Z,11.30
2022-09-24T10:43:54.360Z,11.75
2022-09-24T10:46:47.297Z,12.00
2022-09-24T10:49:27.447Z,12.50
2022-09-24T10:52:08.640Z,13.23
2022-09-24T10:54:56.200Z,12.60
2022-09-24T10:57:32.382Z,13.63
2022-09-24T11:00:08.822Z,12.63
2022-09-24T11:03:19.971Z,14.02
2022-09-24T11:05:55.301Z,13.73
2022-09-24T11:08:37.595Z,13.43
2022-09-24T11:11:22.642Z,13.63
2022-09-24T11:14:02.087Z,14.18
2022-09-24T11:16:49.138Z,13.43
2022-09-24T11:19:30.143Z,13.47
2022-09-24T11:22:08.992Z,13.80
2022-09-24T11:24:48.014Z,12.80
2022-09-24T11:27:37.513Z,12.77
2022-09-24T11:30:13.094Z,12.20
2022-09-24T11:32:53.657Z,10.87
2022-09-24T11:35:48.151Z,11.57
2022-09-24T11:38:19.107Z,11.93
2022-09-24T11:41:05.565Z,11.93
2022-09-24T11:43:50.480Z,12.40
2022-09-24T11:46:28.296Z,10.98
2022-09-24T11:49:08.703Z,12.00
2022-09-24T11:51:50.958Z,11.45
2022-09-24T11:54:25.972Z,10.80
2022-09-24T11:57:01.926Z,11.80
2022-09-24T11:59:39.877Z,11.82
2022-09-24T12:02:19.252Z,10.95
2022-09-24T12:04:55.494Z,10.18
2022-09-24T12:07:33.447Z,9.70
2022-09-24T12:10:05.619Z,9.15
2022-09-24T12:12:38.231Z,9.20
2022-09-24T12:15:18.274Z,10.55
2022-09-24T12:17:52.739Z,11.20
2022-09-24T12:20:24.524Z,10.52
2022-09-24T12:23:00.155Z,10.30
2022-09-24T12:25:30.305Z,10.90
2022-09-24T12:28:00.196Z,9.80
2022-09-24T12:30:54.762Z,10.48
2022-09-24T12:33:30.511Z,9.33
2022-09-24T12:36:06.544Z,9.90
2022-09-24T12:38:39.400Z,8.38
2022-09-24T12:41:28.119Z,8.52
2022-09-24T12:44:01.585Z,8.63
2022-09-24T12:46:34.598Z,8.37
2022-09-24T12:49:06.007Z,9.30
2022-09-24T12:51:39.319Z,7.80
2022-09-24T12:54:09.405Z,9.00
2022-09-24T12:56:37.354Z,8.00
2022-09-24T12:59:05.559Z,8.48
2022-09-24T13:01:35.758Z,8.90
2022-09-24T13:04:28.040Z,9.18
2022-09-24T13:06:55.971Z,8.40
2022-09-24T13:09:38.915Z,9.40
2022-09-24T13:12:21.623Z,8.77
2022-09-24T13:14:57.089Z,8.45
2022-09-24T13:17:26.332Z,7.57
2022-09-24T13:19:58.933Z,6.63
2022-09-24T13:22:30.145Z,6.82
2022-09-24T13:25:22.581Z,7.30
2022-09-24T13:28:02.051Z,6.70
2022-09-24T13:30:37.950Z,7.07
2022-09-24T13:33:24.877Z,8.10
2022-09-24T13:36:05.747Z,7.15
2022-09-24T13:38:36.775Z,8.55
2022-09-24T13:41:13.993Z,7.10
2022-09-24T13:43:49.238Z,8.00
2022-09-24T13:46:19.135Z,7.72
2022-09-24T13:48:52.501Z,7.32
2022-09-24T13:51:26.336Z,6.93
2022-09-24T13:54:00.460Z,7.50
2022-09-24T13:56:28.185Z,6.55
2022-09-24T13:59:06.152Z,7.27
2022-09-24T14:01:39.999Z,7.45
2022-09-24T14:04:18.381Z,7.28
2022-09-24T14:06:50.117Z,7.13
2022-09-24T14:09:28.084Z,6.82
2022-09-24T14:11:58.490Z,6.90
2022-09-24T14:14:27.939Z,7.23
2022-09-24T14:17:06.364Z,7.20
2022-09-24T14:19:36.094Z,7.63
2022-09-24T14:22:06.094Z,7.97
2022-09-24T14:24:36.706Z,7.33
2022-09-24T14:27:08.570Z,7.38
2022-09-24T14:29:46.975Z,7.60
2022-09-24T14:32:23.893Z,7.53
2022-09-24T14:34:57.009Z,7.05
2022-09-24T14:37:29.437Z,7.63
2022-09-24T14:40:04.749Z,7.18
2022-09-24T14:42:38.385Z,8.30
2022-09-24T14:45:09.461Z,7.43
2022-09-24T14:47:38.236Z,8.32
2022-09-24T14:50:29.556Z,7.77
2022-09-24T14:53:00.608Z,8.25
2022-09-24T14:55:38.011Z,8.40
2022-09-24T14:58:05.896Z,8.05
2022-09-24T15:00:38.818Z,8.63
2022-09-24T15:03:12.357Z,8.73
2022-09-24T15:05:41.597Z,9.23
2022-09-24T15:08:27.969Z,8.85
2022-09-24T15:10:57.894Z,8.50
2022-09-24T15:13:28.141Z,8.63
2022-09-24T15:16:04.140Z,8.48
2022-09-24T15:18:32.155Z,9.25
2022-09-24T15:21:03.315Z,9.27
2022-09-24T15:23:31.130Z,9.13
2022-09-24T15:25:58.828Z,9.15
2022-09-24T15:28:29.058Z,9.02
2022-09-24T15:30:57.773Z,9.88
2022-09-24T15:33:25.684Z,8.88
2022-09-24T15:35:53.435Z,9.48
2022-09-24T15:38:22.589Z,9.07
2022-09-24T15:40:53.651Z,10.35
2022-09-24T15:43:23.240Z,8.95
2022-09-24T15:45:51.219Z,9.33
2022-09-24T15:48:19.291Z,10.18
2022-09-24T15:50:50.278Z,10.00
2022-09-24T15:53:21.228Z,9.80
2022-09-24T15:55:53.976Z,10.52
2022-09-24T15:58:22.380Z,9.45
2022-09-24T16:00:50.126Z,10.05
2022-09-24T16:03:20.948Z,10.13
2022-09-24T16:05:49.139Z,9.65
2022-09-24T16:08:17.253Z,9.60
2022-09-24T16:10:46.221Z,10.10
2022-09-24T16:13:17.170Z,9.75
2022-09-24T16:15:45.147Z,9.85
2022-09-24T16:18:15.276Z,11.02
2022-09-24T16:20:45.292Z,10.30
2022-09-24T16:23:15.115Z,10.27
2022-09-24T16:25:44.095Z,10.73
2022-09-24T16:28:11.840Z,9.27
2022-09-24T16:30:40.848Z,10.10
2022-09-24T16:33:08.583Z,9.83
2022-09-24T16:35:36.307Z,9.65
2022-09-24T16:38:04.048Z,9.40
2022-09-24T16:40:32.903Z,9.85
2022-09-24T16:43:00.739Z,9.03
2022-09-24T16:45:28.476Z,9.60
2022-09-24T16:47:57.596Z,8.87
2022-09-24T16:50:25.331Z,9.90
2022-09-24T16:52:54.853Z,9.18
2022-09-24T16:55:24.387Z,9.10
2022-09-24T16:57:52.675Z,9.23
2022-09-24T17:00:20.792Z,9.30
2022-09-24T17:02:48.961Z,8.95
2022-09-24T17:05:18.072Z,10.13
2022-09-24T17:07:45.857Z,9.30
2022-09-24T17:10:16.048Z,9.77
2022-09-24T17:12:46.021Z,9.00
2022-09-24T17:15:15.098Z,9.73
2022-09-24T17:17:49.375Z,10.23
2022-09-24T17:20:19.386Z,9.95
2022-09-24T17:22:48.433Z,10.63
2022-09-24T17:25:16.415Z,10.32
2022-09-24T17:27:44.900Z,9.45
2022-09-24T17:30:13.467Z,10.02
2022-09-24T17:32:41.213Z,10.93
2022-09-24T17:35:10.964Z,10.95
2022-09-24T17:37:40.176Z,11.18
2022-09-24T17:40:09.028Z,10.33
2022-09-24T17:42:36.913Z,10.57
2022-09-24T17:45:05.462Z,10.97
2022-09-24T17:47:54.600Z,9.63
2022-09-24T17:50:22.320Z,10.20
2022-09-24T17:52:51.374Z,10.37
2022-09-24T17:55:19.113Z,10.77
2022-09-24T17:57:46.805Z,11.00
2022-09-24T18:00:15.323Z,11.32
2022-09-24T18:02:43.213Z,11.07
2022-09-24T18:05:11.760Z,11.40
2022-09-24T18:07:39.434Z,12.05
2022-09-24T18:10:09.126Z,12.68
2022-09-24T18:12:36.871Z,12.67
2022-09-24T18:15:04.964Z,11.48
2022-09-24T18:17:33.008Z,12.55
2022-09-24T18:20:00.683Z,12.52
2022-09-24T18:22:28.613Z,13.20
2022-09-24T18:25:00.678Z,13.48
2022-09-24T18:27:31.732Z,14.27
2022-09-24T18:29:59.664Z,14.45
2022-09-24T18:32:29.556Z,14.48
2022-09-24T18:34:57.356Z,14.65
2022-09-24T18:37:25.322Z,15.32
2022-09-24T18:39:53.140Z,15.05
2022-09-24T18:42:20.816Z,16.98
2022-09-24T18:44:50.730Z,15.53
2022-09-24T18:47:20.247Z,16.10
2022-09-24T18:49:49.169Z,15.55
2022-09-24T18:52:16.917Z,16.63
2022-09-24T18:54:44.677Z,16.27
2022-09-24T18:57:12.395Z,15.10
2022-09-24T18:59:44.775Z,15.37
2022-09-24T19:02:14.710Z,14.52
2022-09-24T19:04:42.993Z,14.30
2022-09-24T19:07:10.792Z,17.03
2022-09-24T19:09:38.495Z,17.50
2022-09-24T19:12:08.096Z,17.50
2022-09-24T19:14:35.849Z,16.25
2022-09-24T19:17:04.696Z,18.15
2022-09-24T19:19:34.868Z,18.13
2022-09-24T19:22:02.810Z,17.90
2022-09-24T19:24:30.605Z,19.63
2022-09-24T19:26:58.380Z,19.58
2022-09-24T19:29:26.421Z,18.77
2022-09-24T19:31:54.147Z,18.73
2022-09-24T19:34:22.042Z,18.90
2022-09-24T19:36:51.133Z,18.40
2022-09-24T19:39:19.207Z,19.00
2022-09-24T19:41:47.311Z,18.50
2022-09-24T19:44:16.463Z,17.40
2022-09-24T19:46:44.744Z,19.35
2022-09-24T19:49:13.716Z,18.40
2022-09-24T19:51:41.491Z,18.23
2022-09-24T19:54:11.626Z,19.83
2022-09-24T19:56:40.037Z,18.77
2022-09-24T19:59:08.692Z,19.10
2022-09-24T20:01:37.604Z,20.05
2022-09-24T20:04:07.747Z,18.45
2022-09-24T20:06:37.549Z,20.13
2022-09-24T20:09:06.408Z,19.92
2022-09-24T20:11:36.073Z,19.13
2022-09-24T20:14:06.013Z,18.33
2022-09-24T20:16:34.026Z,19.83
2022-09-24T20:19:03.598Z,19.35
2022-09-24T20:21:34.792Z,17.27
2022-09-24T20:24:04.110Z,16.65
2022-09-24T20:26:49.690Z,17.38
2022-09-24T20:29:20.246Z,17.57
2022-09-24T20:31:52.490Z,16.95
2022-09-24T20:34:22.059Z,16.85
2022-09-24T20:36:50.662Z,16.55
2022-09-24T20:39:18.935Z,16.25
2022-09-24T20:41:46.700Z,15.50
2022-09-24T20:44:14.747Z,16.63
2022-09-24T20:46:43.892Z,16.83
2022-09-24T20:49:18.199Z,15.30
2022-09-24T20:52:06.745Z,16.60
2022-09-24T20:54:34.531Z,15.55
2022-09-24T20:57:02.232Z,16.50
2022-09-24T20:59:30.647Z,16.35
2022-09-24T21:01:59.803Z,17.35
2022-09-24T21:04:27.622Z,16.23
2022-09-24T21:06:55.669Z,15.82
2022-09-24T21:09:23.526Z,15.82
2022-09-24T21:11:53.049Z,17.08
2022-09-24T21:14:21.369Z,15.57
2022-09-24T21:16:49.148Z,16.15
2022-09-24T21:19:18.255Z,16.30
2022-09-24T21:21:46.925Z,15.07
2022-09-24T21:24:16.849Z,16.75
2022-09-24T21:26:45.565Z,14.63
2022-09-24T21:29:16.463Z,16.70
2022-09-24T21:31:46.084Z,15.50
2022-09-24T21:34:15.582Z,13.67
2022-09-24T21:36:46.439Z,14.90
2022-09-24T21:39:16.657Z,15.70
2022-09-24T21:41:45.429Z,14.10
2022-09-24T21:44:15.550Z,14.20
2022-09-24T21:46:43.739Z,15.27
2022-09-24T21:49:12.730Z,15.52
2022-09-24T21:51:41.816Z,15.33
2022-09-24T21:54:15.440Z,14.85
2022-09-24T21:56:43.239Z,16.27
2022-09-24T21:59:25.135Z,16.17
2022-09-24T22:01:53.210Z,15.00
2022-09-24T22:04:21.699Z,15.83
2022-09-24T22:06:50.968Z,15.17
2022-09-24T22:09:20.962Z,15.27
2022-09-24T22:11:48.776Z,14.87
2022-09-24T22:14:16.712Z,14.93
2022-09-24T22:16:44.802Z,15.20
2022-09-24T22:19:12.547Z,13.88
2022-09-24T22:21:40.501Z,15.47
2022-09-24T22:24:08.248Z,14.73
2022-09-24T22:26:37.346Z,15.90
2022-09-24T22:29:05.102Z,15.63
2022-09-24T22:31:34.312Z,15.77
2022-09-24T22:34:19.891Z,16.57
2022-09-24T22:36:48.175Z,16.47
2022-09-24T22:39:16.448Z,16.80
2022-09-24T22:41:46.344Z,16.10
2022-09-24T22:44:14.203Z,15.93
2022-09-24T22:46:42.043Z,16.23
2022-09-24T22:49:10.849Z,17.63
2022-09-24T22:51:39.327Z,16.80
2022-09-24T22:54:08.247Z,17.13
2022-09-24T22:56:36.929Z,16.73
2022-09-24T22:59:06.195Z,17.15
2022-09-24T23:01:36.022Z,16.52
2022-09-24T23:04:04.252Z,16.50
2022-09-24T23:06:33.807Z,18.17
2022-09-24T23:09:02.200Z,17.55
2022-09-24T23:11:31.814Z,17.52
2022-09-24T23:14:01.287Z,18.67
2022-09-24T23:16:32.358Z,17.00
2022-09-24T23:19:02.117Z,17.83
2022-09-24T23:21:31.807Z,18.08
2022-09-24T23:24:02.288Z,17.58
2022-09-24T23:26:31.373Z,18.25
2022-09-24T23:29:00.655Z,18.70
2022-09-24T23:31:34.148Z,17.70
2022-09-24T23:34:02.911Z,17.97
2022-09-24T23:36:32.592Z,17.95
2022-09-24T23:39:00.845Z,18.08
2022-09-24T23:41:31.415Z,17.90
2022-09-24T23:43:59.605Z,18.58
2022-09-24T23:46:27.773Z,17.77
2022-09-24T23:48:57.626Z,19.60
2022-09-24T23:51:25.860Z,18.70
2022-09-24T23:53:53.756Z,18.73
2022-09-24T23:56:21.990Z,19.33
2022-09-24T23:58:49.843Z,20.17
